sensor_id;sensor_type;location;lat;lon;timestamp;P1;durP1;ratioP1;P2;durP2;ratioP2
33347;SDS011;19707;51.158;17.124;2023-02-26T00:01:14;6.30;;;4.50;;
33347;SDS011;19707;51.158;17.124;2023-02-26T00:04:18;7.50;;;4.20;;
33347;SDS011;19707;51.158;17.124;2023-02-26T00:07:20;10.60;;;4.80;;
33347;SDS011;19707;51.158;17.124;2023-02-26T00:10:23;7.80;;;4.20;;
33347;SDS011;19707;51.158;17.124;2023-02-26T00:13:25;8.70;;;4.30;;
33347;SDS011;19707;51.158;17.124;2023-02-26T00:16:29;7.10;;;3.60;;
33347;SDS011;19707;51.158;17.124;2023-02-26T00:19:34;9.40;;;4.20;;
33347;SDS011;19707;51.158;17.124;2023-02-26T00:22:40;6.10;;;4.10;;
33347;SDS011;19707;51.158;17.124;2023-02-26T00:25:43;9.80;;;4.40;;
33347;SDS011;19707;51.158;17.124;2023-02-26T00:28:46;10.20;;;4.20;;
33347;SDS011;19707;51.158;17.124;2023-02-26T00:31:49;8.90;;;4.20;;
33347;SDS011;19707;51.158;17.124;2023-02-26T00:34:52;6.00;;;3.90;;
33347;SDS011;19707;51.158;17.124;2023-02-26T00:41:03;7.90;;;4.20;;
33347;SDS011;19707;51.158;17.124;2023-02-26T00:44:05;7.20;;;4.50;;
33347;SDS011;19707;51.158;17.124;2023-02-26T00:50:17;6.70;;;4.50;;
33347;SDS011;19707;51.158;17.124;2023-02-26T00:53:30;7.10;;;4.20;;
33347;SDS011;19707;51.158;17.124;2023-02-26T00:56:49;10.50;;;4.80;;
33347;SDS011;19707;51.158;17.124;2023-02-26T00:59:52;5.70;;;3.80;;
33347;SDS011;19707;51.158;17.124;2023-02-26T01:02:55;5.90;;;3.80;;
33347;SDS011;19707;51.158;17.124;2023-02-26T01:05:58;7.40;;;4.40;;
33347;SDS011;19707;51.158;17.124;2023-02-26T01:12:09;8.40;;;3.60;;
33347;SDS011;19707;51.158;17.124;2023-02-26T01:15:18;7.90;;;4.40;;
33347;SDS011;19707;51.158;17.124;2023-02-26T01:18:25;10.30;;;3.90;;
33347;SDS011;19707;51.158;17.124;2023-02-26T01:21:32;9.40;;;4.10;;
33347;SDS011;19707;51.158;17.124;2023-02-26T01:24:38;7.90;;;4.70;;
33347;SDS011;19707;51.158;17.124;2023-02-26T01:27:41;7.20;;;4.50;;
33347;SDS011;19707;51.158;17.124;2023-02-26T01:30:43;8.10;;;4.10;;
33347;SDS011;19707;51.158;17.124;2023-02-26T01:33:48;9.20;;;4.80;;
33347;SDS011;19707;51.158;17.124;2023-02-26T01:37:40;7.40;;;4.00;;
33347;SDS011;19707;51.158;17.124;2023-02-26T01:43:52;8.00;;;4.30;;
33347;SDS011;19707;51.158;17.124;2023-02-26T01:50:23;6.70;;;4.70;;
33347;SDS011;19707;51.158;17.124;2023-02-26T01:53:30;7.10;;;4.50;;
33347;SDS011;19707;51.158;17.124;2023-02-26T01:56:33;6.20;;;4.00;;
33347;SDS011;19707;51.158;17.124;2023-02-26T01:59:37;7.40;;;4.00;;
33347;SDS011;19707;51.158;17.124;2023-02-26T02:02:42;5.80;;;4.70;;
33347;SDS011;19707;51.158;17.124;2023-02-26T02:06:28;7.30;;;4.40;;
33347;SDS011;19707;51.158;17.124;2023-02-26T02:09:13;7.50;;;4.70;;
33347;SDS011;19707;51.158;17.124;2023-02-26T02:12:34;8.90;;;4.50;;
33347;SDS011;19707;51.158;17.124;2023-02-26T02:15:42;9.00;;;5.20;;
33347;SDS011;19707;51.158;17.124;2023-02-26T02:19:06;6.90;;;4.40;;
33347;SDS011;19707;51.158;17.124;2023-02-26T02:22:50;9.40;;;4.80;;
33347;SDS011;19707;51.158;17.124;2023-02-26T02:38:58;8.40;;;4.40;;
33347;SDS011;19707;51.158;17.124;2023-02-26T02:42:15;11.00;;;4.50;;
33347;SDS011;19707;51.158;17.124;2023-02-26T02:45:23;4.30;;;3.60;;
33347;SDS011;19707;51.158;17.124;2023-02-26T02:48:37;8.40;;;4.20;;
33347;SDS011;19707;51.158;17.124;2023-02-26T02:51:49;6.20;;;3.90;;
33347;SDS011;19707;51.158;17.124;2023-02-26T02:54:57;5.50;;;3.80;;
33347;SDS011;19707;51.158;17.124;2023-02-26T02:58:07;4.70;;;3.10;;
33347;SDS011;19707;51.158;17.124;2023-02-26T03:01:14;6.60;;;3.50;;
33347;SDS011;19707;51.158;17.124;2023-02-26T03:04:17;6.60;;;3.40;;
33347;SDS011;19707;51.158;17.124;2023-02-26T03:07:20;8.30;;;4.00;;
33347;SDS011;19707;51.158;17.124;2023-02-26T03:10:22;6.50;;;3.30;;
33347;SDS011;19707;51.158;17.124;2023-02-26T03:13:25;4.50;;;3.10;;
33347;SDS011;19707;51.158;17.124;2023-02-26T03:19:55;5.50;;;3.30;;
33347;SDS011;19707;51.158;17.124;2023-02-26T03:26:28;5.50;;;3.00;;
33347;SDS011;19707;51.158;17.124;2023-02-26T03:32:49;4.80;;;3.00;;
33347;SDS011;19707;51.158;17.124;2023-02-26T03:39:34;5.20;;;2.70;;
33347;SDS011;19707;51.158;17.124;2023-02-26T03:42:45;5.20;;;3.20;;
33347;SDS011;19707;51.158;17.124;2023-02-26T03:45:50;5.30;;;2.70;;
33347;SDS011;19707;51.158;17.124;2023-02-26T03:48:55;4.00;;;2.70;;
33347;SDS011;19707;51.158;17.124;2023-02-26T03:51:59;5.10;;;3.30;;
33347;SDS011;19707;51.158;17.124;2023-02-26T03:55:10;6.80;;;3.20;;
33347;SDS011;19707;51.158;17.124;2023-02-26T03:58:19;4.10;;;2.90;;
33347;SDS011;19707;51.158;17.124;2023-02-26T04:01:25;3.80;;;2.70;;
33347;SDS011;19707;51.158;17.124;2023-02-26T04:04:41;5.70;;;3.00;;
33347;SDS011;19707;51.158;17.124;2023-02-26T04:08:06;2.80;;;2.50;;
33347;SDS011;19707;51.158;17.124;2023-02-26T04:11:16;7.10;;;3.50;;
33347;SDS011;19707;51.158;17.124;2023-02-26T04:14:20;6.10;;;2.70;;
33347;SDS011;19707;51.158;17.124;2023-02-26T04:17:23;5.10;;;3.00;;
33347;SDS011;19707;51.158;17.124;2023-02-26T04:20:26;5.20;;;3.20;;
33347;SDS011;19707;51.158;17.124;2023-02-26T04:23:29;10.80;;;3.30;;
33347;SDS011;19707;51.158;17.124;2023-02-26T04:26:31;5.80;;;2.70;;
33347;SDS011;19707;51.158;17.124;2023-02-26T04:29:34;4.00;;;2.20;;
33347;SDS011;19707;51.158;17.124;2023-02-26T04:32:36;7.30;;;3.10;;
33347;SDS011;19707;51.158;17.124;2023-02-26T04:35:39;3.30;;;2.60;;
33347;SDS011;19707;51.158;17.124;2023-02-26T04:38:42;2.70;;;2.20;;
33347;SDS011;19707;51.158;17.124;2023-02-26T04:41:44;4.10;;;2.60;;
33347;SDS011;19707;51.158;17.124;2023-02-26T04:44:47;5.20;;;2.70;;
33347;SDS011;19707;51.158;17.124;2023-02-26T04:47:50;3.90;;;2.70;;
33347;SDS011;19707;51.158;17.124;2023-02-26T04:50:52;5.50;;;3.10;;
33347;SDS011;19707;51.158;17.124;2023-02-26T04:53:55;4.90;;;2.90;;
33347;SDS011;19707;51.158;17.124;2023-02-26T04:56:57;3.70;;;2.80;;
33347;SDS011;19707;51.158;17.124;2023-02-26T05:00:00;3.20;;;2.30;;
33347;SDS011;19707;51.158;17.124;2023-02-26T05:03:03;5.90;;;3.20;;
33347;SDS011;19707;51.158;17.124;2023-02-26T05:06:06;4.70;;;2.80;;
33347;SDS011;19707;51.158;17.124;2023-02-26T05:09:08;5.20;;;3.00;;
33347;SDS011;19707;51.158;17.124;2023-02-26T05:12:11;3.00;;;2.40;;
33347;SDS011;19707;51.158;17.124;2023-02-26T05:15:13;7.60;;;2.60;;
33347;SDS011;19707;51.158;17.124;2023-02-26T05:18:16;5.20;;;2.70;;
33347;SDS011;19707;51.158;17.124;2023-02-26T05:21:19;5.00;;;2.50;;
33347;SDS011;19707;51.158;17.124;2023-02-26T05:24:22;3.30;;;2.50;;
33347;SDS011;19707;51.158;17.124;2023-02-26T05:27:25;5.40;;;2.30;;
33347;SDS011;19707;51.158;17.124;2023-02-26T05:30:28;5.50;;;2.60;;
33347;SDS011;19707;51.158;17.124;2023-02-26T05:33:31;4.40;;;2.30;;
33347;SDS011;19707;51.158;17.124;2023-02-26T05:36:33;6.20;;;2.40;;
33347;SDS011;19707;51.158;17.124;2023-02-26T05:39:36;4.10;;;2.00;;
33347;SDS011;19707;51.158;17.124;2023-02-26T05:42:38;2.60;;;1.90;;
33347;SDS011;19707;51.158;17.124;2023-02-26T05:45:41;2.80;;;2.10;;
33347;SDS011;19707;51.158;17.124;2023-02-26T05:48:44;4.90;;;2.40;;
33347;SDS011;19707;51.158;17.124;2023-02-26T05:51:46;3.70;;;1.90;;
33347;SDS011;19707;51.158;17.124;2023-02-26T05:54:49;3.20;;;2.20;;
33347;SDS011;19707;51.158;17.124;2023-02-26T05:57:52;3.00;;;2.10;;
33347;SDS011;19707;51.158;17.124;2023-02-26T06:00:56;3.10;;;2.40;;
33347;SDS011;19707;51.158;17.124;2023-02-26T06:03:59;2.90;;;2.10;;
33347;SDS011;19707;51.158;17.124;2023-02-26T06:07:01;3.70;;;2.70;;
33347;SDS011;19707;51.158;17.124;2023-02-26T06:10:04;5.60;;;2.80;;
33347;SDS011;19707;51.158;17.124;2023-02-26T06:13:09;4.10;;;2.20;;
33347;SDS011;19707;51.158;17.124;2023-02-26T06:16:11;4.00;;;2.70;;
33347;SDS011;19707;51.158;17.124;2023-02-26T06:19:13;6.70;;;3.50;;
33347;SDS011;19707;51.158;17.124;2023-02-26T06:22:15;7.10;;;2.30;;
33347;SDS011;19707;51.158;17.124;2023-02-26T06:25:18;4.50;;;2.60;;
33347;SDS011;19707;51.158;17.124;2023-02-26T06:28:21;4.50;;;2.20;;
33347;SDS011;19707;51.158;17.124;2023-02-26T06:31:25;5.20;;;2.70;;
33347;SDS011;19707;51.158;17.124;2023-02-26T06:34:27;4.60;;;3.10;;
33347;SDS011;19707;51.158;17.124;2023-02-26T06:37:30;3.90;;;2.60;;
33347;SDS011;19707;51.158;17.124;2023-02-26T06:40:32;3.00;;;2.30;;
33347;SDS011;19707;51.158;17.124;2023-02-26T06:43:34;3.50;;;2.30;;
33347;SDS011;19707;51.158;17.124;2023-02-26T06:46:37;4.70;;;2.80;;
33347;SDS011;19707;51.158;17.124;2023-02-26T06:49:39;4.50;;;2.90;;
33347;SDS011;19707;51.158;17.124;2023-02-26T06:52:42;6.00;;;3.00;;
33347;SDS011;19707;51.158;17.124;2023-02-26T06:55:45;6.10;;;3.40;;
33347;SDS011;19707;51.158;17.124;2023-02-26T06:58:48;4.60;;;2.90;;
33347;SDS011;19707;51.158;17.124;2023-02-26T07:01:50;4.00;;;2.60;;
33347;SDS011;19707;51.158;17.124;2023-02-26T07:04:53;5.10;;;2.80;;
33347;SDS011;19707;51.158;17.124;2023-02-26T07:07:55;6.00;;;2.60;;
33347;SDS011;19707;51.158;17.124;2023-02-26T07:10:59;5.10;;;2.60;;
33347;SDS011;19707;51.158;17.124;2023-02-26T07:14:01;3.20;;;2.60;;
33347;SDS011;19707;51.158;17.124;2023-02-26T07:17:04;6.60;;;2.40;;
33347;SDS011;19707;51.158;17.124;2023-02-26T07:20:07;5.10;;;2.60;;
33347;SDS011;19707;51.158;17.124;2023-02-26T07:23:10;4.50;;;2.50;;
33347;SDS011;19707;51.158;17.124;2023-02-26T07:26:13;3.60;;;2.70;;
33347;SDS011;19707;51.158;17.124;2023-02-26T07:29:15;4.80;;;3.20;;
33347;SDS011;19707;51.158;17.124;2023-02-26T07:32:18;8.50;;;4.40;;
33347;SDS011;19707;51.158;17.124;2023-02-26T07:35:20;6.10;;;3.10;;
33347;SDS011;19707;51.158;17.124;2023-02-26T07:38:22;9.20;;;4.50;;
33347;SDS011;19707;51.158;17.124;2023-02-26T07:41:25;8.30;;;3.80;;
33347;SDS011;19707;51.158;17.124;2023-02-26T07:44:27;4.20;;;2.90;;
33347;SDS011;19707;51.158;17.124;2023-02-26T07:47:30;4.20;;;3.00;;
33347;SDS011;19707;51.158;17.124;2023-02-26T07:50:33;7.20;;;4.00;;
33347;SDS011;19707;51.158;17.124;2023-02-26T07:53:35;5.50;;;3.50;;
33347;SDS011;19707;51.158;17.124;2023-02-26T07:56:38;6.20;;;3.70;;
33347;SDS011;19707;51.158;17.124;2023-02-26T07:59:42;7.70;;;3.80;;
33347;SDS011;19707;51.158;17.124;2023-02-26T08:02:44;4.40;;;3.50;;
33347;SDS011;19707;51.158;17.124;2023-02-26T08:05:47;4.50;;;3.20;;
33347;SDS011;19707;51.158;17.124;2023-02-26T08:08:49;9.80;;;5.90;;
33347;SDS011;19707;51.158;17.124;2023-02-26T08:11:52;7.00;;;4.70;;
33347;SDS011;19707;51.158;17.124;2023-02-26T08:14:55;13.00;;;6.40;;
33347;SDS011;19707;51.158;17.124;2023-02-26T08:17:57;7.60;;;4.30;;
33347;SDS011;19707;51.158;17.124;2023-02-26T08:21:00;6.00;;;4.10;;
33347;SDS011;19707;51.158;17.124;2023-02-26T08:24:03;7.50;;;3.90;;
33347;SDS011;19707;51.158;17.124;2023-02-26T08:27:05;3.60;;;2.50;;
33347;SDS011;19707;51.158;17.124;2023-02-26T08:30:08;6.20;;;4.30;;
33347;SDS011;19707;51.158;17.124;2023-02-26T08:33:14;8.80;;;5.20;;
33347;SDS011;19707;51.158;17.124;2023-02-26T08:36:17;5.30;;;3.90;;
33347;SDS011;19707;51.158;17.124;2023-02-26T08:39:19;5.30;;;3.90;;
33347;SDS011;19707;51.158;17.124;2023-02-26T08:42:21;6.90;;;3.60;;
33347;SDS011;19707;51.158;17.124;2023-02-26T08:45:24;12.30;;;4.60;;
33347;SDS011;19707;51.158;17.124;2023-02-26T08:48:27;10.40;;;4.30;;
33347;SDS011;19707;51.158;17.124;2023-02-26T08:51:29;8.70;;;4.00;;
33347;SDS011;19707;51.158;17.124;2023-02-26T08:54:32;4.90;;;3.60;;
33347;SDS011;19707;51.158;17.124;2023-02-26T08:57:34;5.60;;;3.80;;
33347;SDS011;19707;51.158;17.124;2023-02-26T09:00:37;7.00;;;4.50;;
33347;SDS011;19707;51.158;17.124;2023-02-26T09:03:39;5.70;;;3.80;;
33347;SDS011;19707;51.158;17.124;2023-02-26T09:06:42;8.00;;;4.10;;
33347;SDS011;19707;51.158;17.124;2023-02-26T09:09:44;8.90;;;4.60;;
33347;SDS011;19707;51.158;17.124;2023-02-26T09:12:47;6.40;;;4.20;;
33347;SDS011;19707;51.158;17.124;2023-02-26T09:15:49;6.30;;;4.00;;
33347;SDS011;19707;51.158;17.124;2023-02-26T09:18:52;11.70;;;4.30;;
33347;SDS011;19707;51.158;17.124;2023-02-26T09:21:54;9.40;;;4.30;;
33347;SDS011;19707;51.158;17.124;2023-02-26T09:24:57;7.10;;;4.10;;
33347;SDS011;19707;51.158;17.124;2023-02-26T09:27:59;8.10;;;4.30;;
33347;SDS011;19707;51.158;17.124;2023-02-26T09:31:03;7.50;;;4.30;;
33347;SDS011;19707;51.158;17.124;2023-02-26T09:37:10;8.10;;;3.90;;
33347;SDS011;19707;51.158;17.124;2023-02-26T09:50:45;5.80;;;3.90;;
33347;SDS011;19707;51.158;17.124;2023-02-26T09:53:49;6.40;;;3.70;;
33347;SDS011;19707;51.158;17.124;2023-02-26T09:56:53;9.30;;;5.50;;
33347;SDS011;19707;51.158;17.124;2023-02-26T09:59:57;6.10;;;4.60;;
33347;SDS011;19707;51.158;17.124;2023-02-26T10:06:28;7.50;;;4.40;;
33347;SDS011;19707;51.158;17.124;2023-02-26T10:09:48;5.60;;;3.60;;
33347;SDS011;19707;51.158;17.124;2023-02-26T10:12:53;6.70;;;4.50;;
33347;SDS011;19707;51.158;17.124;2023-02-26T10:15:58;9.70;;;4.50;;
33347;SDS011;19707;51.158;17.124;2023-02-26T10:19:07;5.70;;;3.90;;
33347;SDS011;19707;51.158;17.124;2023-02-26T10:22:25;8.70;;;5.20;;
33347;SDS011;19707;51.158;17.124;2023-02-26T10:25:36;13.30;;;8.00;;
33347;SDS011;19707;51.158;17.124;2023-02-26T10:32:24;10.40;;;5.50;;
33347;SDS011;19707;51.158;17.124;2023-02-26T10:35:55;8.50;;;5.00;;
33347;SDS011;19707;51.158;17.124;2023-02-26T10:39:01;9.60;;;5.00;;
33347;SDS011;19707;51.158;17.124;2023-02-26T10:42:26;8.50;;;5.50;;
33347;SDS011;19707;51.158;17.124;2023-02-26T10:45:35;9.60;;;4.50;;
33347;SDS011;19707;51.158;17.124;2023-02-26T10:48:53;6.70;;;3.80;;
33347;SDS011;19707;51.158;17.124;2023-02-26T10:51:56;14.00;;;7.70;;
33347;SDS011;19707;51.158;17.124;2023-02-26T11:01:17;5.30;;;4.10;;
33347;SDS011;19707;51.158;17.124;2023-02-26T11:04:22;7.70;;;4.70;;
33347;SDS011;19707;51.158;17.124;2023-02-26T11:07:27;5.30;;;3.60;;
33347;SDS011;19707;51.158;17.124;2023-02-26T11:10:47;5.40;;;4.10;;
33347;SDS011;19707;51.158;17.124;2023-02-26T11:13:52;9.80;;;5.20;;
33347;SDS011;19707;51.158;17.124;2023-02-26T11:16:55;15.80;;;7.80;;
33347;SDS011;19707;51.158;17.124;2023-02-26T11:20:02;14.10;;;5.50;;
33347;SDS011;19707;51.158;17.124;2023-02-26T11:23:17;8.10;;;3.70;;
33347;SDS011;19707;51.158;17.124;2023-02-26T11:26:25;7.70;;;3.40;;
33347;SDS011;19707;51.158;17.124;2023-02-26T11:29:32;5.90;;;3.80;;
33347;SDS011;19707;51.158;17.124;2023-02-26T11:32:39;6.00;;;3.50;;
33347;SDS011;19707;51.158;17.124;2023-02-26T11:35:41;5.30;;;3.50;;
33347;SDS011;19707;51.158;17.124;2023-02-26T11:38:45;9.10;;;4.40;;
33347;SDS011;19707;51.158;17.124;2023-02-26T11:41:54;5.70;;;4.00;;
33347;SDS011;19707;51.158;17.124;2023-02-26T11:44:58;9.60;;;4.20;;
33347;SDS011;19707;51.158;17.124;2023-02-26T11:48:10;7.60;;;4.90;;
33347;SDS011;19707;51.158;17.124;2023-02-26T11:51:18;10.10;;;5.00;;
33347;SDS011;19707;51.158;17.124;2023-02-26T11:54:23;7.40;;;5.00;;
33347;SDS011;19707;51.158;17.124;2023-02-26T11:57:27;8.00;;;4.20;;
33347;SDS011;19707;51.158;17.124;2023-02-26T12:00:38;5.20;;;3.60;;
33347;SDS011;19707;51.158;17.124;2023-02-26T12:03:42;4.20;;;2.20;;
33347;SDS011;19707;51.158;17.124;2023-02-26T12:06:48;4.90;;;3.10;;
33347;SDS011;19707;51.158;17.124;2023-02-26T12:09:52;9.10;;;3.90;;
33347;SDS011;19707;51.158;17.124;2023-02-26T12:13:04;7.20;;;3.70;;
33347;SDS011;19707;51.158;17.124;2023-02-26T12:16:35;6.10;;;3.70;;
33347;SDS011;19707;51.158;17.124;2023-02-26T12:19:51;3.70;;;2.80;;
33347;SDS011;19707;51.158;17.124;2023-02-26T12:30:02;9.00;;;3.70;;
33347;SDS011;19707;51.158;17.124;2023-02-26T13:10:16;7.50;;;3.80;;
33347;SDS011;19707;51.158;17.124;2023-02-26T13:16:53;8.20;;;3.50;;
33347;SDS011;19707;51.158;17.124;2023-02-26T13:20:10;4.60;;;2.70;;
33347;SDS011;19707;51.158;17.124;2023-02-26T13:23:19;9.30;;;3.70;;
33347;SDS011;19707;51.158;17.124;2023-02-26T13:26:23;6.60;;;3.30;;
33347;SDS011;19707;51.158;17.124;2023-02-26T13:29:35;5.50;;;2.90;;
33347;SDS011;19707;51.158;17.124;2023-02-26T13:32:40;6.10;;;3.40;;
33347;SDS011;19707;51.158;17.124;2023-02-26T13:35:43;6.10;;;3.00;;
33347;SDS011;19707;51.158;17.124;2023-02-26T13:42:30;3.00;;;1.50;;
33347;SDS011;19707;51.158;17.124;2023-02-26T13:45:57;2.60;;;1.80;;
33347;SDS011;19707;51.158;17.124;2023-02-26T13:49:18;5.00;;;2.20;;
33347;SDS011;19707;51.158;17.124;2023-02-26T13:52:33;6.30;;;2.90;;
33347;SDS011;19707;51.158;17.124;2023-02-26T13:55:41;6.10;;;3.30;;
33347;SDS011;19707;51.158;17.124;2023-02-26T13:58:53;6.80;;;4.50;;
33347;SDS011;19707;51.158;17.124;2023-02-26T14:02:03;13.20;;;6.10;;
33347;SDS011;19707;51.158;17.124;2023-02-26T14:08:44;9.90;;;4.10;;
33347;SDS011;19707;51.158;17.124;2023-02-26T14:18:02;6.40;;;4.00;;
33347;SDS011;19707;51.158;17.124;2023-02-26T14:24:29;10.20;;;3.70;;
33347;SDS011;19707;51.158;17.124;2023-02-26T14:27:38;6.90;;;3.40;;
33347;SDS011;19707;51.158;17.124;2023-02-26T14:37:24;6.80;;;3.80;;
33347;SDS011;19707;51.158;17.124;2023-02-26T14:40:28;9.70;;;3.50;;
33347;SDS011;19707;51.158;17.124;2023-02-26T14:43:37;8.30;;;4.10;;
33347;SDS011;19707;51.158;17.124;2023-02-26T14:46:42;8.70;;;4.10;;
33347;SDS011;19707;51.158;17.124;2023-02-26T14:49:45;15.30;;;4.60;;
33347;SDS011;19707;51.158;17.124;2023-02-26T14:52:51;10.80;;;5.30;;
33347;SDS011;19707;51.158;17.124;2023-02-26T14:56:13;13.40;;;6.50;;
33347;SDS011;19707;51.158;17.124;2023-02-26T14:59:45;9.10;;;4.40;;
33347;SDS011;19707;51.158;17.124;2023-02-26T15:09:36;11.80;;;4.30;;
33347;SDS011;19707;51.158;17.124;2023-02-26T15:26:19;8.30;;;3.40;;
33347;SDS011;19707;51.158;17.124;2023-02-26T15:29:34;12.20;;;4.10;;
33347;SDS011;19707;51.158;17.124;2023-02-26T15:32:38;11.80;;;5.20;;
33347;SDS011;19707;51.158;17.124;2023-02-26T15:35:41;10.80;;;4.20;;
33347;SDS011;19707;51.158;17.124;2023-02-26T15:38:46;9.20;;;4.50;;
33347;SDS011;19707;51.158;17.124;2023-02-26T15:41:50;11.70;;;4.40;;
33347;SDS011;19707;51.158;17.124;2023-02-26T15:44:54;11.50;;;4.60;;
33347;SDS011;19707;51.158;17.124;2023-02-26T15:48:01;8.00;;;3.70;;
33347;SDS011;19707;51.158;17.124;2023-02-26T15:51:09;7.20;;;3.90;;
33347;SDS011;19707;51.158;17.124;2023-02-26T15:54:18;13.50;;;5.90;;
33347;SDS011;19707;51.158;17.124;2023-02-26T15:57:25;10.90;;;5.90;;
33347;SDS011;19707;51.158;17.124;2023-02-26T16:00:30;12.60;;;5.50;;
33347;SDS011;19707;51.158;17.124;2023-02-26T16:03:35;13.10;;;6.00;;
33347;SDS011;19707;51.158;17.124;2023-02-26T16:06:40;10.70;;;5.20;;
33347;SDS011;19707;51.158;17.124;2023-02-26T16:10:05;12.20;;;4.60;;
33347;SDS011;19707;51.158;17.124;2023-02-26T16:13:12;12.50;;;5.90;;
33347;SDS011;19707;51.158;17.124;2023-02-26T16:16:26;12.10;;;5.70;;
33347;SDS011;19707;51.158;17.124;2023-02-26T16:19:40;17.20;;;6.00;;
33347;SDS011;19707;51.158;17.124;2023-02-26T16:28:57;13.90;;;6.10;;
33347;SDS011;19707;51.158;17.124;2023-02-26T16:32:04;17.00;;;6.30;;
33347;SDS011;19707;51.158;17.124;2023-02-26T16:35:14;13.00;;;6.00;;
33347;SDS011;19707;51.158;17.124;2023-02-26T16:38:26;16.90;;;6.40;;
33347;SDS011;19707;51.158;17.124;2023-02-26T16:41:33;14.20;;;6.30;;
33347;SDS011;19707;51.158;17.124;2023-02-26T16:44:39;12.60;;;6.70;;
33347;SDS011;19707;51.158;17.124;2023-02-26T16:47:47;13.10;;;8.00;;
33347;SDS011;19707;51.158;17.124;2023-02-26T16:50:59;21.10;;;8.70;;
33347;SDS011;19707;51.158;17.124;2023-02-26T16:54:04;16.70;;;7.80;;
33347;SDS011;19707;51.158;17.124;2023-02-26T16:57:17;20.80;;;8.60;;
33347;SDS011;19707;51.158;17.124;2023-02-26T17:00:24;26.30;;;11.10;;
33347;SDS011;19707;51.158;17.124;2023-02-26T17:03:32;23.10;;;11.20;;
33347;SDS011;19707;51.158;17.124;2023-02-26T17:06:39;18.00;;;8.50;;
33347;SDS011;19707;51.158;17.124;2023-02-26T17:09:50;21.10;;;8.70;;
33347;SDS011;19707;51.158;17.124;2023-02-26T17:13:11;21.50;;;9.10;;
33347;SDS011;19707;51.158;17.124;2023-02-26T17:16:18;21.60;;;9.60;;
33347;SDS011;19707;51.158;17.124;2023-02-26T17:19:23;25.60;;;10.50;;
33347;SDS011;19707;51.158;17.124;2023-02-26T17:22:26;23.60;;;11.20;;
33347;SDS011;19707;51.158;17.124;2023-02-26T17:25:33;22.60;;;11.20;;
33347;SDS011;19707;51.158;17.124;2023-02-26T17:28:39;26.60;;;10.30;;
33347;SDS011;19707;51.158;17.124;2023-02-26T17:31:43;22.30;;;10.50;;
33347;SDS011;19707;51.158;17.124;2023-02-26T17:34:46;16.60;;;8.30;;
33347;SDS011;19707;51.158;17.124;2023-02-26T17:37:50;27.00;;;12.40;;
33347;SDS011;19707;51.158;17.124;2023-02-26T17:40:53;30.40;;;13.00;;
33347;SDS011;19707;51.158;17.124;2023-02-26T17:43:56;32.90;;;14.00;;
33347;SDS011;19707;51.158;17.124;2023-02-26T17:46:59;47.70;;;22.50;;
33347;SDS011;19707;51.158;17.124;2023-02-26T17:50:01;50.80;;;25.00;;
33347;SDS011;19707;51.158;17.124;2023-02-26T17:53:04;45.40;;;23.50;;
33347;SDS011;19707;51.158;17.124;2023-02-26T17:56:10;31.50;;;16.50;;
33347;SDS011;19707;51.158;17.124;2023-02-26T17:59:15;27.00;;;12.30;;
33347;SDS011;19707;51.158;17.124;2023-02-26T18:02:22;24.10;;;8.10;;
33347;SDS011;19707;51.158;17.124;2023-02-26T18:05:28;16.80;;;8.00;;
33347;SDS011;19707;51.158;17.124;2023-02-26T18:08:34;16.90;;;8.20;;
33347;SDS011;19707;51.158;17.124;2023-02-26T18:11:36;18.60;;;7.90;;
33347;SDS011;19707;51.158;17.124;2023-02-26T18:14:39;15.90;;;7.70;;
33347;SDS011;19707;51.158;17.124;2023-02-26T18:17:42;17.70;;;7.70;;
33347;SDS011;19707;51.158;17.124;2023-02-26T18:20:45;17.10;;;7.40;;
33347;SDS011;19707;51.158;17.124;2023-02-26T18:23:48;19.80;;;6.60;;
33347;SDS011;19707;51.158;17.124;2023-02-26T18:26:50;22.50;;;10.70;;
33347;SDS011;19707;51.158;17.124;2023-02-26T18:29:53;24.90;;;10.60;;
33347;SDS011;19707;51.158;17.124;2023-02-26T18:36:01;12.70;;;6.00;;
33347;SDS011;19707;51.158;17.124;2023-02-26T18:39:05;14.60;;;6.70;;
33347;SDS011;19707;51.158;17.124;2023-02-26T18:45:18;18.90;;;8.30;;
33347;SDS011;19707;51.158;17.124;2023-02-26T18:48:21;19.80;;;7.70;;
33347;SDS011;19707;51.158;17.124;2023-02-26T18:51:23;17.40;;;6.80;;
33347;SDS011;19707;51.158;17.124;2023-02-26T18:54:26;15.40;;;7.10;;
33347;SDS011;19707;51.158;17.124;2023-02-26T18:57:29;16.20;;;5.50;;
33347;SDS011;19707;51.158;17.124;2023-02-26T19:00:32;13.50;;;6.90;;
33347;SDS011;19707;51.158;17.124;2023-02-26T19:03:37;15.40;;;7.70;;
33347;SDS011;19707;51.158;17.124;2023-02-26T19:06:40;20.70;;;9.80;;
33347;SDS011;19707;51.158;17.124;2023-02-26T19:09:43;19.80;;;8.60;;
33347;SDS011;19707;51.158;17.124;2023-02-26T19:12:46;18.80;;;8.40;;
33347;SDS011;19707;51.158;17.124;2023-02-26T19:15:51;13.80;;;6.00;;
33347;SDS011;19707;51.158;17.124;2023-02-26T19:18:55;24.90;;;8.90;;
33347;SDS011;19707;51.158;17.124;2023-02-26T19:21:58;16.10;;;6.50;;
33347;SDS011;19707;51.158;17.124;2023-02-26T19:25:01;14.60;;;6.50;;
33347;SDS011;19707;51.158;17.124;2023-02-26T19:28:08;16.00;;;7.50;;
33347;SDS011;19707;51.158;17.124;2023-02-26T19:31:14;14.60;;;6.70;;
33347;SDS011;19707;51.158;17.124;2023-02-26T19:34:17;14.50;;;6.80;;
33347;SDS011;19707;51.158;17.124;2023-02-26T19:37:21;11.50;;;5.60;;
33347;SDS011;19707;51.158;17.124;2023-02-26T19:40:24;14.50;;;5.60;;
33347;SDS011;19707;51.158;17.124;2023-02-26T19:43:29;13.00;;;5.60;;
33347;SDS011;19707;51.158;17.124;2023-02-26T19:46:32;14.10;;;6.30;;
33347;SDS011;19707;51.158;17.124;2023-02-26T19:49:36;12.70;;;5.60;;
33347;SDS011;19707;51.158;17.124;2023-02-26T19:52:39;11.40;;;5.70;;
33347;SDS011;19707;51.158;17.124;2023-02-26T19:55:42;11.30;;;5.80;;
33347;SDS011;19707;51.158;17.124;2023-02-26T19:58:44;13.70;;;5.60;;
33347;SDS011;19707;51.158;17.124;2023-02-26T20:01:46;15.80;;;6.30;;
33347;SDS011;19707;51.158;17.124;2023-02-26T20:04:50;13.60;;;6.60;;
33347;SDS011;19707;51.158;17.124;2023-02-26T20:07:52;13.70;;;6.80;;
33347;SDS011;19707;51.158;17.124;2023-02-26T20:10:56;17.80;;;8.90;;
33347;SDS011;19707;51.158;17.124;2023-02-26T20:14:00;15.40;;;6.30;;
33347;SDS011;19707;51.158;17.124;2023-02-26T20:17:03;23.00;;;9.00;;
33347;SDS011;19707;51.158;17.124;2023-02-26T20:20:06;18.90;;;9.40;;
33347;SDS011;19707;51.158;17.124;2023-02-26T20:23:10;18.00;;;9.30;;
33347;SDS011;19707;51.158;17.124;2023-02-26T20:26:14;19.20;;;9.00;;
33347;SDS011;19707;51.158;17.124;2023-02-26T20:29:17;19.30;;;8.40;;
33347;SDS011;19707;51.158;17.124;2023-02-26T20:32:20;16.50;;;7.70;;
33347;SDS011;19707;51.158;17.124;2023-02-26T20:35:24;18.10;;;8.30;;
33347;SDS011;19707;51.158;17.124;2023-02-26T20:38:27;16.90;;;8.00;;
33347;SDS011;19707;51.158;17.124;2023-02-26T20:41:30;18.70;;;7.40;;
33347;SDS011;19707;51.158;17.124;2023-02-26T20:44:32;16.10;;;7.80;;
33347;SDS011;19707;51.158;17.124;2023-02-26T20:47:35;17.10;;;6.90;;
33347;SDS011;19707;51.158;17.124;2023-02-26T20:50:38;18.70;;;7.00;;
33347;SDS011;19707;51.158;17.124;2023-02-26T20:53:41;19.40;;;7.10;;
33347;SDS011;19707;51.158;17.124;2023-02-26T20:56:45;15.20;;;7.30;;
33347;SDS011;19707;51.158;17.124;2023-02-26T20:59:49;18.70;;;6.50;;
33347;SDS011;19707;51.158;17.124;2023-02-26T21:02:52;16.60;;;7.40;;
33347;SDS011;19707;51.158;17.124;2023-02-26T21:05:56;20.80;;;7.90;;
33347;SDS011;19707;51.158;17.124;2023-02-26T21:08:59;16.90;;;8.10;;